Terminal Aerodrome Forecast
Issued by NWS

Home | Current Version | Previous Version | Text Only | Print | Product List | Glossary On
Versions: 1 2 3 4 5 6 7 8 9 10 11 12 13 14 15 16 17 18 19 20 21 22 23 24 25 26 27 28 29 30 31
000
FTUS45 KBOU 232114 AAB
TAFAPA
TAF AMD
KAPA 232114Z 2321/2418 03008KT P6SM FEW080 SCT220
     FM240400 10008KT P6SM FEW220
     FM241200 17008KT P6SM FEW140 SCT220
     FM241600 05008KT P6SM SCT120 SCT220=

USA.gov is the U.S. government's official web portal to all federal, state and local government web resources and services.